createdAt,value
2019-04-30T00:00:22.777Z,7.03
2019-04-30T00:01:22.383Z,6.84
2019-04-30T00:02:20.665Z,6.91
2019-04-30T00:03:24.905Z,6.85
2019-04-30T00:04:20.441Z,6.88
2019-04-30T00:05:22.383Z,6.89
2019-04-30T00:06:20.427Z,6.84
2019-04-30T00:07:22.403Z,6.84
2019-04-30T00:08:20.776Z,6.81
2019-04-30T00:09:22.277Z,6.77
2019-04-30T00:10:20.173Z,6.81
2019-04-30T00:11:25.022Z,6.77
2019-04-30T00:12:20.379Z,6.79
2019-04-30T00:13:23.437Z,6.77
2019-04-30T00:14:20.035Z,6.76
2019-04-30T00:15:22.975Z,6.64
2019-04-30T00:16:20.128Z,6.74
2019-04-30T00:17:22.817Z,6.73
2019-04-30T00:18:20.262Z,6.7
2019-04-30T00:19:22.658Z,6.7
2019-04-30T00:20:20.248Z,6.73
2019-04-30T00:21:21.913Z,6.66
2019-04-30T00:22:34.258Z,6.73
2019-04-30T00:23:22.580Z,6.69
2019-04-30T00:24:18.387Z,6.71
2019-04-30T00:25:28.478Z,6.7
2019-04-30T00:26:21.811Z,6.69
2019-04-30T00:27:26.259Z,6.62
2019-04-30T00:28:20.177Z,6.69
2019-04-30T00:29:30.912Z,6.67
2019-04-30T00:30:20.170Z,6.66
2019-04-30T00:31:29.882Z,6.69
2019-04-30T00:32:18.453Z,6.69
2019-04-30T00:33:29.878Z,6.59
2019-04-30T00:34:19.957Z,6.62
2019-04-30T00:35:22.898Z,6.56
2019-04-30T00:36:21.844Z,6.52
2019-04-30T00:37:23.059Z,6.51
2019-04-30T00:38:19.866Z,6.56
2019-04-30T00:39:19.495Z,6.56
2019-04-30T00:40:26.577Z,6.58
2019-04-30T00:41:18.001Z,6.58
2019-04-30T00:42:31.246Z,6.51
2019-04-30T00:43:18.010Z,6.51
2019-04-30T00:44:24.674Z,6.49
2019-04-30T00:45:20.146Z,6.56
2019-04-30T00:46:31.812Z,6.48
2019-04-30T00:47:17.910Z,6.52
2019-04-30T00:48:31.252Z,6.4
2019-04-30T00:49:29.022Z,6.54
2019-04-30T00:50:19.743Z,6.46
2019-04-30T00:51:26.148Z,6.38
2019-04-30T00:52:20.060Z,6.51
2019-04-30T00:53:20.937Z,6.4
2019-04-30T00:54:22.329Z,6.38
2019-04-30T00:55:19.754Z,6.37
2019-04-30T00:56:24.533Z,6.33
2019-04-30T00:57:19.806Z,6.34
2019-04-30T00:58:31.386Z,6.4
2019-04-30T00:59:17.766Z,6.37
2019-04-30T01:00:30.576Z,6.38
2019-04-30T01:01:17.736Z,6.4
2019-04-30T01:02:28.611Z,6.31
2019-04-30T01:03:17.844Z,6.28
2019-04-30T01:04:24.370Z,6.3
2019-04-30T01:05:18.132Z,6.21
2019-04-30T01:06:31.080Z,6.28
2019-04-30T01:07:18.054Z,6.25
2019-04-30T01:08:25.216Z,6.27
2019-04-30T01:09:17.986Z,6.22
2019-04-30T01:10:24.593Z,6.3
2019-04-30T01:11:17.879Z,6.18
2019-04-30T01:12:39.000Z,6.21
2019-04-30T01:13:19.167Z,6.27
2019-04-30T01:14:18.833Z,6.3
2019-04-30T01:15:19.159Z,6.21
2019-04-30T01:16:19.400Z,6.17
2019-04-30T01:17:18.846Z,6.19
2019-04-30T01:18:19.230Z,6.17
2019-04-30T01:19:35.248Z,6.17
2019-04-30T01:20:19.229Z,6.17
2019-04-30T01:21:18.475Z,6.12
2019-04-30T01:22:28.003Z,6.12
2019-04-30T01:23:19.384Z,6.15
2019-04-30T01:24:18.996Z,6.15
2019-04-30T01:25:18.672Z,6.14
2019-04-30T01:26:18.700Z,6.09
2019-04-30T01:27:18.775Z,6.12
2019-04-30T01:28:25.702Z,6.06
2019-04-30T01:29:19.099Z,6.09
2019-04-30T01:30:23.917Z,6.14
2019-04-30T01:31:18.721Z,6.03
2019-04-30T01:32:24.414Z,6.01
2019-04-30T01:33:19.121Z,6.04
2019-04-30T01:34:19.558Z,6.04
2019-04-30T01:35:19.055Z,6.04
2019-04-30T01:36:19.261Z,6.06
2019-04-30T01:37:20.140Z,6.06
2019-04-30T01:38:18.857Z,6.06
2019-04-30T01:39:19.340Z,5.99
2019-04-30T01:40:18.951Z,6.03
2019-04-30T01:41:20.169Z,5.99
2019-04-30T01:42:18.459Z,5.96
2019-04-30T01:43:21.287Z,5.97
2019-04-30T01:44:17.192Z,5.91
2019-04-30T01:45:18.726Z,5.99
2019-04-30T01:46:18.909Z,5.96
2019-04-30T01:47:21.310Z,6.01
2019-04-30T01:48:19.280Z,5.97
2019-04-30T01:49:19.841Z,5.91
2019-04-30T01:50:17.118Z,5.94
2019-04-30T01:51:23.030Z,5.9
2019-04-30T01:52:17.097Z,5.9
2019-04-30T01:53:18.581Z,5.89
2019-04-30T01:54:24.281Z,5.83
2019-04-30T01:55:17.051Z,5.91
2019-04-30T01:56:19.066Z,5.85
2019-04-30T01:57:17.024Z,5.85
2019-04-30T01:58:19.287Z,5.86
2019-04-30T01:59:18.957Z,5.85
2019-04-30T02:00:16.991Z,5.93
2019-04-30T02:01:18.907Z,5.79
2019-04-30T02:02:18.467Z,5.85
2019-04-30T02:03:19.194Z,5.83
2019-04-30T02:04:16.937Z,5.85
2019-04-30T02:05:18.755Z,5.83
2019-04-30T02:06:16.920Z,5.86
2019-04-30T02:07:18.971Z,5.85
2019-04-30T02:08:16.881Z,5.85
2019-04-30T02:09:18.824Z,5.81
2019-04-30T02:10:18.468Z,5.89
2019-04-30T02:11:18.815Z,5.85
2019-04-30T02:12:16.829Z,5.86
2019-04-30T02:13:18.763Z,5.83
2019-04-30T02:14:16.809Z,5.82
2019-04-30T02:15:16.791Z,5.86
2019-04-30T02:16:18.674Z,5.9
2019-04-30T02:17:16.763Z,5.9
2019-04-30T02:18:16.752Z,5.85
2019-04-30T02:19:18.528Z,5.82
2019-04-30T02:20:18.500Z,5.89
2019-04-30T02:21:16.721Z,5.76
2019-04-30T02:22:18.812Z,5.78
2019-04-30T02:23:16.686Z,5.86
2019-04-30T02:24:19.032Z,5.86
2019-04-30T02:25:16.661Z,5.83
2019-04-30T02:26:18.555Z,5.83
2019-04-30T02:27:16.650Z,5.82
2019-04-30T02:28:16.618Z,5.89
2019-04-30T02:29:16.605Z,5.91
2019-04-30T02:30:16.604Z,5.81
2019-04-30T02:31:19.317Z,5.76
2019-04-30T02:32:16.573Z,5.81
2019-04-30T02:33:19.494Z,5.86
2019-04-30T02:34:16.549Z,5.82
2019-04-30T02:35:19.283Z,5.74
2019-04-30T02:36:16.530Z,5.72
2019-04-30T02:37:16.533Z,5.72
2019-04-30T02:38:16.494Z,5.74
2019-04-30T02:39:16.480Z,5.63
2019-04-30T02:40:16.482Z,5.75
2019-04-30T02:41:19.259Z,5.75
2019-04-30T02:42:20.051Z,5.68
2019-04-30T02:43:16.434Z,5.63
2019-04-30T02:44:16.416Z,5.65
2019-04-30T02:45:16.406Z,5.63
2019-04-30T02:46:16.389Z,5.63
2019-04-30T02:47:16.383Z,5.64
2019-04-30T02:48:19.262Z,5.57
2019-04-30T02:49:16.346Z,5.63
2019-04-30T02:50:24.965Z,5.6
2019-04-30T02:51:16.331Z,5.53
2019-04-30T02:52:16.315Z,5.64
2019-04-30T02:53:16.052Z,5.64
2019-04-30T02:54:16.293Z,5.61
2019-04-30T02:55:16.277Z,5.53
2019-04-30T02:56:16.267Z,5.63
2019-04-30T02:57:16.923Z,5.57
2019-04-30T02:58:16.238Z,5.56
2019-04-30T02:59:15.979Z,5.56
2019-04-30T03:00:16.230Z,5.58
2019-04-30T03:01:16.191Z,5.49
2019-04-30T03:02:19.440Z,5.49
2019-04-30T03:03:16.178Z,5.45
2019-04-30T03:04:16.174Z,5.53
2019-04-30T03:05:20.144Z,5.46
2019-04-30T03:06:16.413Z,5.51
2019-04-30T03:07:16.110Z,5.43
2019-04-30T03:08:16.108Z,5.42
2019-04-30T03:09:16.084Z,5.45
2019-04-30T03:10:16.085Z,5.45
2019-04-30T03:11:16.059Z,5.36
2019-04-30T03:12:16.055Z,5.39
2019-04-30T03:13:16.032Z,5.39
2019-04-30T03:14:16.039Z,5.35
2019-04-30T03:15:16.020Z,5.38
2019-04-30T03:16:16.006Z,5.39
2019-04-30T03:17:15.985Z,5.35
2019-04-30T03:18:15.960Z,5.36
2019-04-30T03:19:15.982Z,5.36
2019-04-30T03:20:39.960Z,5.35
2019-04-30T03:21:15.928Z,5.28
2019-04-30T03:22:15.915Z,5.33
2019-04-30T03:23:15.901Z,5.33
2019-04-30T03:24:15.969Z,5.36
2019-04-30T03:25:15.883Z,5.36
2019-04-30T03:26:19.969Z,5.22
2019-04-30T03:27:15.838Z,5.31
2019-04-30T03:28:15.840Z,5.27
2019-04-30T03:29:16.502Z,5.27
2019-04-30T03:30:21.308Z,5.28
2019-04-30T03:31:21.941Z,5.28
2019-04-30T03:32:22.007Z,5.31
2019-04-30T03:33:22.253Z,5.28
2019-04-30T03:34:32.433Z,5.38
2019-04-30T03:35:22.224Z,5.33
2019-04-30T03:36:21.226Z,5.3
2019-04-30T03:37:15.720Z,5.36
2019-04-30T03:38:15.697Z,5.33
2019-04-30T03:39:16.173Z,5.36
2019-04-30T03:40:20.182Z,5.39
2019-04-30T03:41:15.661Z,5.35
2019-04-30T03:42:15.672Z,5.4
2019-04-30T03:43:15.638Z,5.39
2019-04-30T03:44:29.490Z,5.4
2019-04-30T03:45:15.611Z,5.38
2019-04-30T03:46:15.600Z,5.42
2019-04-30T03:47:15.975Z,5.38
2019-04-30T03:48:15.600Z,5.4
2019-04-30T03:49:20.169Z,5.39
2019-04-30T03:50:15.546Z,5.43
2019-04-30T03:51:15.627Z,5.39
2019-04-30T03:52:19.650Z,5.42
2019-04-30T03:53:15.508Z,5.36
2019-04-30T03:54:15.485Z,5.4
2019-04-30T03:55:15.473Z,5.45
2019-04-30T03:56:15.219Z,5.46
2019-04-30T03:57:15.811Z,5.46
2019-04-30T03:58:15.444Z,5.49
2019-04-30T03:59:15.750Z,5.58
2019-04-30T04:00:15.451Z,5.56
2019-04-30T04:01:15.413Z,5.45
2019-04-30T04:02:20.555Z,5.48
2019-04-30T04:03:15.435Z,5.56
2019-04-30T04:04:15.388Z,5.56
2019-04-30T04:05:15.366Z,5.58
2019-04-30T04:06:15.390Z,5.57
2019-04-30T04:07:15.342Z,5.65
2019-04-30T04:08:15.336Z,5.57
2019-04-30T04:09:15.291Z,5.54
2019-04-30T04:10:15.341Z,5.67
2019-04-30T04:11:15.275Z,5.64
2019-04-30T04:12:19.837Z,5.68
2019-04-30T04:13:15.252Z,5.75
2019-04-30T04:14:15.231Z,5.83
2019-04-30T04:15:15.260Z,5.94
2019-04-30T04:16:15.240Z,5.93
2019-04-30T04:17:15.181Z,6.14
2019-04-30T04:18:15.671Z,6.25
2019-04-30T04:19:15.158Z,6.4
2019-04-30T04:20:15.672Z,6.56
2019-04-30T04:21:23.087Z,6.73
2019-04-30T04:22:17.083Z,6.85
2019-04-30T04:23:15.109Z,6.99
2019-04-30T04:24:15.464Z,7.15
2019-04-30T04:25:20.343Z,7.32
2019-04-30T04:26:15.079Z,7.43
2019-04-30T04:27:15.071Z,7.49
2019-04-30T04:28:15.056Z,7.71
2019-04-30T04:29:19.505Z,7.92
2019-04-30T04:30:15.589Z,8.01
2019-04-30T04:31:15.019Z,8.26
2019-04-30T04:32:15.543Z,8.41
2019-04-30T04:33:15.183Z,8.48
2019-04-30T04:34:14.992Z,8.65
2019-04-30T04:35:19.715Z,8.7
2019-04-30T04:36:14.967Z,8.79
2019-04-30T04:37:14.968Z,8.89
2019-04-30T04:38:16.632Z,9.05
2019-04-30T04:39:14.938Z,9.2
2019-04-30T04:40:14.955Z,9.32
2019-04-30T04:41:15.296Z,9.51
2019-04-30T04:42:15.071Z,9.65
2019-04-30T04:43:15.289Z,9.76
2019-04-30T04:44:20.249Z,9.9
2019-04-30T04:45:30.342Z,10.05
2019-04-30T04:46:14.909Z,10.17
2019-04-30T04:47:19.761Z,10.26
2019-04-30T04:48:14.874Z,10.33
2019-04-30T04:49:14.862Z,10.47
2019-04-30T04:50:15.410Z,10.55
2019-04-30T04:51:42.262Z,10.56
2019-04-30T04:52:15.161Z,10.45
2019-04-30T04:53:16.410Z,10.61
2019-04-30T04:54:15.250Z,10.74
2019-04-30T04:55:15.101Z,10.88
2019-04-30T04:56:15.059Z,10.81
2019-04-30T04:57:25.252Z,10.84
2019-04-30T04:58:21.390Z,10.85
2019-04-30T04:59:15.188Z,10.94
2019-04-30T05:00:15.518Z,11.06
2019-04-30T05:01:16.851Z,11.21
2019-04-30T05:02:14.783Z,11.29
2019-04-30T05:03:14.528Z,11.44
2019-04-30T05:04:16.638Z,11.44
2019-04-30T05:05:14.511Z,11.52
2019-04-30T05:06:16.774Z,11.67
2019-04-30T05:07:14.728Z,11.78
2019-04-30T05:08:14.724Z,11.78
2019-04-30T05:09:14.732Z,11.86
2019-04-30T05:10:14.761Z,11.85
2019-04-30T05:11:14.471Z,11.85
2019-04-30T05:12:14.457Z,11.85
2019-04-30T05:13:14.454Z,11.85
2019-04-30T05:14:15.797Z,11.99
2019-04-30T05:15:14.683Z,12.07
2019-04-30T05:16:14.706Z,12.2
2019-04-30T05:17:14.434Z,12.49
2019-04-30T05:18:14.432Z,12.46
2019-04-30T05:19:14.666Z,12.53
2019-04-30T05:20:14.983Z,12.65
2019-04-30T05:21:14.417Z,12.7
2019-04-30T05:22:14.656Z,12.82
2019-04-30T05:23:14.646Z,12.97
2019-04-30T05:24:14.641Z,13.14
2019-04-30T05:25:14.638Z,13.28
2019-04-30T05:26:15.882Z,13.23
2019-04-30T05:27:14.629Z,13.38
2019-04-30T05:28:14.628Z,13.38
2019-04-30T05:29:14.631Z,13.39
2019-04-30T05:30:17.003Z,13.51
2019-04-30T05:31:14.623Z,13.78
2019-04-30T05:32:14.632Z,14.02
2019-04-30T05:33:14.608Z,14.32
2019-04-30T05:34:15.093Z,14.45
2019-04-30T05:35:14.610Z,14.43
2019-04-30T05:36:14.610Z,14.45
2019-04-30T05:37:14.596Z,14.51
2019-04-30T05:38:14.597Z,14.46
2019-04-30T05:39:14.597Z,14.37
2019-04-30T05:40:14.584Z,14.4
2019-04-30T05:41:14.594Z,14.43
2019-04-30T05:42:14.579Z,14.5
2019-04-30T05:43:16.136Z,14.28
2019-04-30T05:44:14.584Z,14.36
2019-04-30T05:45:14.584Z,14.18
2019-04-30T05:46:16.573Z,14.25
2019-04-30T05:47:14.569Z,14.37
2019-04-30T05:48:14.565Z,14.45
2019-04-30T05:49:14.573Z,14.68
2019-04-30T05:50:14.562Z,14.78
2019-04-30T05:51:14.559Z,14.88
2019-04-30T05:52:16.448Z,14.95
2019-04-30T05:53:14.563Z,14.96
2019-04-30T05:54:14.578Z,14.99
2019-04-30T05:55:14.552Z,14.84
2019-04-30T05:56:14.547Z,14.68
2019-04-30T05:57:14.550Z,14.69
2019-04-30T05:58:14.546Z,14.58
2019-04-30T05:59:14.310Z,14.62
2019-04-30T06:00:14.989Z,14.58
2019-04-30T06:01:14.648Z,14.52
2019-04-30T06:02:16.085Z,14.69
2019-04-30T06:03:25.097Z,14.92
2019-04-30T06:04:14.542Z,15.09
2019-04-30T06:05:14.541Z,15.2
2019-04-30T06:06:16.303Z,15.27
2019-04-30T06:07:14.532Z,15.23
2019-04-30T06:08:14.534Z,15.23
2019-04-30T06:09:33.973Z,15.28
2019-04-30T06:10:14.531Z,15.35
2019-04-30T06:11:14.534Z,15.56
2019-04-30T06:12:16.227Z,15.68
2019-04-30T06:13:14.532Z,15.8
2019-04-30T06:14:14.532Z,15.93
2019-04-30T06:15:16.699Z,16.08
2019-04-30T06:16:14.560Z,16.15
2019-04-30T06:17:14.733Z,16.15
2019-04-30T06:18:18.519Z,16.31
2019-04-30T06:19:14.527Z,16.45
2019-04-30T06:20:23.471Z,16.68
2019-04-30T06:21:14.527Z,16.67
2019-04-30T06:22:15.802Z,16.52
2019-04-30T06:23:14.607Z,16.79
2019-04-30T06:24:15.510Z,17.21
2019-04-30T06:25:26.960Z,17.4
2019-04-30T06:26:20.453Z,17.38
2019-04-30T06:27:15.692Z,17.26
2019-04-30T06:28:14.545Z,17.14
2019-04-30T06:29:14.296Z,17.12
2019-04-30T06:30:16.940Z,17.19
2019-04-30T06:31:14.540Z,17.07
2019-04-30T06:32:14.541Z,17.08
2019-04-30T06:33:16.577Z,17.19
2019-04-30T06:34:14.545Z,17.34
2019-04-30T06:35:14.576Z,17.37
2019-04-30T06:36:15.950Z,17.54
2019-04-30T06:37:14.599Z,17.4
2019-04-30T06:38:14.557Z,17.36
2019-04-30T06:39:14.557Z,17.41
2019-04-30T06:40:16.568Z,17.44
2019-04-30T06:41:14.559Z,17.71
2019-04-30T06:42:19.423Z,17.89
2019-04-30T06:43:14.565Z,17.92
2019-04-30T06:44:14.567Z,17.84
2019-04-30T06:45:14.573Z,17.64
2019-04-30T06:46:14.576Z,17.49
2019-04-30T06:47:14.583Z,17.58
2019-04-30T06:48:14.585Z,17.87
2019-04-30T06:49:14.587Z,17.99
2019-04-30T06:50:14.590Z,18.26
2019-04-30T06:51:14.590Z,18.3
2019-04-30T06:52:26.099Z,18.41
2019-04-30T06:53:14.603Z,18.44
2019-04-30T06:54:15.839Z,18.66
2019-04-30T06:55:14.362Z,18.84
2019-04-30T06:56:14.608Z,18.98
2019-04-30T06:57:16.942Z,19.23
2019-04-30T06:58:22.821Z,19.63
2019-04-30T06:59:14.623Z,19.91
2019-04-30T07:00:14.710Z,20.2
2019-04-30T07:01:14.639Z,20.61
2019-04-30T07:02:14.633Z,20.87
2019-04-30T07:03:14.552Z,21.12
2019-04-30T07:04:15.249Z,21.38
2019-04-30T07:05:15.030Z,21.58
2019-04-30T07:07:19.155Z,21.47
2019-04-30T07:08:18.900Z,21.4
2019-04-30T07:09:14.666Z,21.17
2019-04-30T07:10:22.956Z,20.97
2019-04-30T07:11:15.831Z,20.72
2019-04-30T07:12:34.017Z,20.35
2019-04-30T07:13:14.688Z,20.36
2019-04-30T07:14:14.736Z,20.59
2019-04-30T07:15:16.158Z,20.92
2019-04-30T07:16:15.805Z,21.03
2019-04-30T07:17:14.749Z,21.09
2019-04-30T07:18:14.739Z,21.1
2019-04-30T07:19:14.730Z,21.07
2019-04-30T07:20:15.251Z,21.03
2019-04-30T07:21:14.733Z,20.8
2019-04-30T07:22:14.749Z,20.85
2019-04-30T07:23:14.742Z,20.66
2019-04-30T07:24:14.815Z,20.28
2019-04-30T07:25:14.758Z,19.92
2019-04-30T07:26:25.144Z,19.74
2019-04-30T07:27:14.764Z,19.56
2019-04-30T07:28:14.797Z,19.28
2019-04-30T07:29:14.816Z,19.07
2019-04-30T07:30:14.958Z,19.1
2019-04-30T07:31:21.576Z,19.26
2019-04-30T07:32:14.793Z,19.37
2019-04-30T07:33:14.797Z,19.37
2019-04-30T07:34:14.808Z,19.44
2019-04-30T07:35:14.807Z,19.43
2019-04-30T07:36:14.867Z,19.5
2019-04-30T07:37:28.949Z,19.99
2019-04-30T07:38:14.822Z,20.23
2019-04-30T07:39:14.950Z,20.31
2019-04-30T07:40:14.840Z,20.41
2019-04-30T07:41:14.847Z,20.38
2019-04-30T07:42:14.854Z,20.13
2019-04-30T07:43:14.890Z,19.92
2019-04-30T07:44:36.561Z,19.87
2019-04-30T07:46:54.542Z,19.91
2019-04-30T07:47:54.544Z,19.8
2019-04-30T07:48:55.103Z,19.69
2019-04-30T07:50:03.221Z,19.92
2019-04-30T07:50:59.027Z,20.08
2019-04-30T07:51:57.366Z,20.26
2019-04-30T07:55:22.099Z,21.27
2019-04-30T07:56:41.585Z,21.44
2019-04-30T07:57:21.764Z,21.47
2019-04-30T07:58:22.960Z,21.54
2019-04-30T07:59:22.620Z,21.37
2019-04-30T08:00:21.894Z,21.14
2019-04-30T08:01:22.049Z,21.1
2019-04-30T08:02:24.572Z,21.09
2019-04-30T08:03:23.360Z,21.09
2019-04-30T08:04:21.229Z,21.14
2019-04-30T08:05:22.348Z,21.37
2019-04-30T08:06:22.486Z,21.61
2019-04-30T08:07:22.499Z,21.67
2019-04-30T08:08:30.267Z,21.74
2019-04-30T08:09:24.129Z,21.84
2019-04-30T08:09:36.726Z,20.54
2019-04-30T08:10:21.281Z,21.96
2019-04-30T08:11:34.258Z,22.1
2019-04-30T08:12:40.724Z,22.3
2019-04-30T08:13:24.883Z,22.45
2019-04-30T08:14:24.627Z,22.43
2019-04-30T08:15:22.282Z,22.28
2019-04-30T08:16:21.111Z,22.06
2019-04-30T08:17:21.320Z,21.86
2019-04-30T08:18:20.926Z,21.64
2019-04-30T08:19:21.534Z,21.38
2019-04-30T08:20:22.116Z,21.34
2019-04-30T08:21:21.436Z,21.29
2019-04-30T08:22:22.067Z,21.17
2019-04-30T08:23:40.076Z,20.99
2019-04-30T08:24:21.757Z,20.85
2019-04-30T08:25:24.472Z,20.48
2019-04-30T08:26:21.268Z,20.17
2019-04-30T08:27:22.146Z,20.06
2019-04-30T08:28:21.155Z,19.94
2019-04-30T08:29:21.913Z,19.88
2019-04-30T08:30:32.443Z,19.66
2019-04-30T08:31:22.002Z,19.41
2019-04-30T08:32:21.570Z,19.28
2019-04-30T08:33:21.819Z,19.1
2019-04-30T08:34:22.549Z,18.94
2019-04-30T08:35:22.147Z,18.7
2019-04-30T08:36:22.102Z,18.48
2019-04-30T08:37:24.620Z,18.39
2019-04-30T08:38:21.579Z,18.29
2019-04-30T08:39:22.140Z,18.11
2019-04-30T08:40:21.490Z,18.14
2019-04-30T08:41:21.768Z,17.86
2019-04-30T08:42:38.301Z,17.59
2019-04-30T08:43:22.279Z,17.4
2019-04-30T08:44:23.194Z,17.33
2019-04-30T08:45:22.166Z,17.25
2019-04-30T08:46:21.579Z,17.08
2019-04-30T08:47:23.633Z,16.97
2019-04-30T08:48:21.459Z,16.89
2019-04-30T08:49:23.655Z,16.86
2019-04-30T08:50:22.854Z,16.73
2019-04-30T08:51:21.916Z,16.66
2019-04-30T08:52:22.162Z,16.53
2019-04-30T08:53:36.039Z,16.45
2019-04-30T08:54:22.494Z,16.34
2019-04-30T08:55:24.789Z,16.38
2019-04-30T08:56:24.174Z,16.27
2019-04-30T08:57:21.658Z,16.02
2019-04-30T08:58:22.995Z,16.01
2019-04-30T08:59:21.928Z,15.8
2019-04-30T09:00:22.006Z,15.75
2019-04-30T09:01:22.208Z,15.6
2019-04-30T09:02:22.189Z,15.56
2019-04-30T09:03:21.872Z,15.51
2019-04-30T09:04:22.621Z,15.43
2019-04-30T09:05:20.971Z,15.35
2019-04-30T09:06:21.959Z,15.38
2019-04-30T09:07:22.162Z,15.38
2019-04-30T09:08:21.840Z,15.43
2019-04-30T09:09:21.302Z,15.41
2019-04-30T09:10:21.705Z,15.46
2019-04-30T09:11:49.769Z,15.56
2019-04-30T09:12:22.027Z,15.51
2019-04-30T09:13:21.629Z,15.62
2019-04-30T09:14:21.135Z,15.5
2019-04-30T09:15:21.319Z,15.56
2019-04-30T09:16:21.913Z,15.57
2019-04-30T09:17:22.342Z,15.49
2019-04-30T09:18:21.553Z,15.53
2019-04-30T09:19:23.546Z,15.56
2019-04-30T09:20:21.876Z,15.5
2019-04-30T09:21:21.138Z,15.44
2019-04-30T09:22:21.978Z,15.44
2019-04-30T09:23:21.164Z,15.5
2019-04-30T09:24:21.534Z,15.5
2019-04-30T09:25:21.896Z,15.53
2019-04-30T09:26:21.196Z,15.51
2019-04-30T09:27:22.030Z,15.53
2019-04-30T09:28:22.263Z,15.59
2019-04-30T09:29:21.560Z,15.56
2019-04-30T09:30:21.355Z,15.57
2019-04-30T09:31:22.242Z,15.57
2019-04-30T09:32:21.756Z,15.53
2019-04-30T09:33:21.879Z,15.53
2019-04-30T09:34:25.106Z,15.57
2019-04-30T09:35:22.011Z,15.54
2019-04-30T09:36:23.169Z,15.64
2019-04-30T09:37:21.209Z,15.62
2019-04-30T09:38:21.995Z,15.74
2019-04-30T09:39:23.241Z,15.6
2019-04-30T09:40:25.229Z,15.67
2019-04-30T09:41:21.681Z,15.5
2019-04-30T09:42:22.055Z,15.53
2019-04-30T09:43:21.224Z,15.54
2019-04-30T09:44:21.903Z,15.53
2019-04-30T09:45:21.156Z,15.5
2019-04-30T09:46:32.377Z,15.56
2019-04-30T09:47:22.509Z,15.53
2019-04-30T09:48:21.560Z,15.51
2019-04-30T09:49:21.891Z,15.53
2019-04-30T09:50:21.266Z,15.54
2019-04-30T09:51:25.124Z,15.57
2019-04-30T09:52:22.112Z,15.56
2019-04-30T09:53:22.255Z,15.51
2019-04-30T09:54:22.878Z,15.5
2019-04-30T09:55:21.774Z,15.44
2019-04-30T09:56:21.754Z,15.38
2019-04-30T09:57:21.745Z,15.47
2019-04-30T09:58:25.119Z,15.5
2019-04-30T09:59:21.400Z,15.59
2019-04-30T10:00:21.818Z,15.75
2019-04-30T10:02:21.641Z,15.78
2019-04-30T10:03:23.457Z,15.78
2019-04-30T10:04:23.378Z,15.83
2019-04-30T10:05:23.208Z,15.89
2019-04-30T10:06:21.361Z,15.89
2019-04-30T10:07:21.967Z,15.97
2019-04-30T10:08:22.886Z,16.02
2019-04-30T10:09:21.802Z,16
2019-04-30T10:10:21.289Z,16
2019-04-30T10:11:20.494Z,16.02
2019-04-30T10:12:21.983Z,16.02
2019-04-30T10:13:20.483Z,16.02
2019-04-30T10:14:20.498Z,16.05
2019-04-30T10:15:21.321Z,16.05
2019-04-30T10:16:21.961Z,16.05
2019-04-30T10:17:20.463Z,16.02
2019-04-30T10:18:20.462Z,15.92
2019-04-30T10:19:21.562Z,15.9
2019-04-30T10:20:20.443Z,15.92
2019-04-30T10:21:21.498Z,16
2019-04-30T10:22:20.435Z,16.01
2019-04-30T10:23:21.828Z,16.01
2019-04-30T10:24:22.048Z,15.96
2019-04-30T10:25:20.416Z,16
2019-04-30T10:26:20.411Z,16.01
2019-04-30T10:27:21.666Z,15.94
2019-04-30T10:28:22.104Z,16
2019-04-30T10:29:20.415Z,16.15
2019-04-30T10:30:21.640Z,16.21
2019-04-30T10:31:21.402Z,16.25
2019-04-30T10:32:21.165Z,16.34
2019-04-30T10:33:22.020Z,16.43
2019-04-30T10:34:20.369Z,16.6
2019-04-30T10:35:20.761Z,16.58
2019-04-30T10:36:21.822Z,16.64
2019-04-30T10:37:21.330Z,16.5
2019-04-30T10:38:21.917Z,16.58
2019-04-30T10:39:23.978Z,16.49
2019-04-30T10:40:22.624Z,16.41
2019-04-30T10:41:21.276Z,16.43
2019-04-30T10:42:20.328Z,16.39
2019-04-30T10:43:22.156Z,16.43
2019-04-30T10:44:21.233Z,16.33
2019-04-30T10:45:20.993Z,16.35
2019-04-30T10:46:20.309Z,16.39
2019-04-30T10:47:21.714Z,16.25
2019-04-30T10:48:20.297Z,16.23
2019-04-30T10:49:21.709Z,16.35
2019-04-30T10:50:20.288Z,16.34
2019-04-30T10:51:21.359Z,16.45
2019-04-30T10:52:21.667Z,16.41
2019-04-30T10:53:20.266Z,16.53
2019-04-30T10:54:31.195Z,16.5
2019-04-30T10:55:20.261Z,16.53
2019-04-30T10:56:21.713Z,16.6
2019-04-30T10:57:20.844Z,16.67
2019-04-30T10:58:20.248Z,16.57
2019-04-30T10:59:20.232Z,16.66
2019-04-30T11:00:21.062Z,16.7
2019-04-30T11:01:21.702Z,16.73
2019-04-30T11:02:20.253Z,16.68
2019-04-30T11:03:25.703Z,16.7
2019-04-30T11:04:20.214Z,16.78
2019-04-30T11:05:23.289Z,16.81
2019-04-30T11:06:21.375Z,16.78
2019-04-30T11:07:21.062Z,16.82
2019-04-30T11:08:20.187Z,16.73
2019-04-30T11:09:20.187Z,16.78
2019-04-30T11:10:21.354Z,16.81
2019-04-30T11:11:20.170Z,16.91
2019-04-30T11:12:21.778Z,16.89
2019-04-30T11:13:20.161Z,16.89
2019-04-30T11:14:20.152Z,16.83
2019-04-30T11:15:23.132Z,16.79
2019-04-30T11:16:21.307Z,16.81
2019-04-30T11:17:22.363Z,16.93
2019-04-30T11:18:20.916Z,16.89
2019-04-30T11:19:22.015Z,17
2019-04-30T11:20:24.420Z,16.98
2019-04-30T11:21:22.381Z,16.97
2019-04-30T11:22:20.642Z,17.04
2019-04-30T11:23:23.801Z,17.06
2019-04-30T11:24:22.297Z,17.06
2019-04-30T11:25:22.894Z,17.08
2019-04-30T11:26:21.947Z,17.08
2019-04-30T11:27:23.777Z,17.15
2019-04-30T11:28:21.669Z,17.07
2019-04-30T11:29:22.812Z,17.12
2019-04-30T11:30:29.664Z,17.14
2019-04-30T11:31:20.723Z,17.26
2019-04-30T11:32:20.757Z,17.22
2019-04-30T11:33:20.694Z,17.22
2019-04-30T11:34:20.056Z,17.23
2019-04-30T11:35:22.929Z,17.23
2019-04-30T11:36:21.782Z,17.21
2019-04-30T11:37:19.795Z,17.28
2019-04-30T11:38:22.845Z,17.23
2019-04-30T11:39:21.053Z,17.38
2019-04-30T11:40:31.122Z,17.4
2019-04-30T11:41:33.227Z,17.46
2019-04-30T11:42:20.012Z,17.56
2019-04-30T11:43:20.894Z,17.52
2019-04-30T11:44:34.036Z,17.52
2019-04-30T11:45:21.808Z,17.52
2019-04-30T11:46:21.124Z,17.58
2019-04-30T11:51:21.836Z,17.68
2019-04-30T11:52:19.968Z,17.63
2019-04-30T11:53:33.167Z,17.68
2019-04-30T11:54:20.877Z,17.64
2019-04-30T11:55:21.741Z,17.63
2019-04-30T11:56:19.945Z,17.68
2019-04-30T11:57:21.146Z,17.64
2019-04-30T11:58:26.664Z,17.66
2019-04-30T11:59:21.926Z,17.66
2019-04-30T12:00:21.183Z,17.72
2019-04-30T12:01:21.843Z,17.82
2019-04-30T12:02:21.746Z,17.87
2019-04-30T12:03:21.612Z,17.82
2019-04-30T12:04:21.805Z,17.9
2019-04-30T12:05:23.107Z,17.97
2019-04-30T12:06:20.909Z,17.9
2019-04-30T12:07:19.893Z,17.99
2019-04-30T12:08:21.791Z,17.9
2019-04-30T12:09:22.414Z,17.89
2019-04-30T12:10:21.804Z,17.87
2019-04-30T12:11:20.188Z,17.89
2019-04-30T12:12:21.397Z,17.84
2019-04-30T12:13:19.867Z,17.87
2019-04-30T12:14:20.858Z,17.89
2019-04-30T12:15:21.649Z,18
2019-04-30T12:16:21.030Z,18.11
2019-04-30T12:17:19.845Z,18.1
2019-04-30T12:18:19.841Z,18.2
2019-04-30T12:19:21.323Z,18.2
2019-04-30T12:20:22.041Z,18.2
2019-04-30T12:21:19.825Z,18.18
2019-04-30T12:22:22.572Z,18.14
2019-04-30T12:23:21.396Z,18.11
2019-04-30T12:24:19.811Z,18.23
2019-04-30T12:25:21.163Z,18.25
2019-04-30T12:26:21.466Z,18.26
2019-04-30T12:27:21.114Z,18.26
2019-04-30T12:28:21.910Z,18.33
2019-04-30T12:29:21.555Z,18.33
2019-04-30T12:30:22.978Z,18.29
2019-04-30T12:31:21.117Z,18.23
2019-04-30T12:32:21.583Z,18.2
2019-04-30T12:33:21.602Z,18.29
2019-04-30T12:34:19.765Z,18.2
2019-04-30T12:35:19.778Z,18.23
2019-04-30T12:36:21.322Z,18.18
2019-04-30T12:37:21.509Z,18.2
2019-04-30T12:38:21.645Z,18.29
2019-04-30T12:39:19.749Z,18.32
2019-04-30T12:40:34.802Z,18.29
2019-04-30T12:41:19.738Z,18.32
2019-04-30T12:42:21.357Z,18.27
2019-04-30T12:43:19.727Z,18.29
2019-04-30T12:44:19.720Z,18.32
2019-04-30T12:45:21.749Z,18.35
2019-04-30T12:46:23.501Z,18.33
2019-04-30T12:47:23.835Z,18.32
2019-04-30T12:48:22.558Z,18.45
2019-04-30T12:49:21.363Z,18.45
2019-04-30T12:50:21.858Z,18.41
2019-04-30T12:51:19.694Z,18.41
2019-04-30T12:52:19.690Z,18.32
2019-04-30T12:53:19.690Z,18.39
2019-04-30T12:54:19.679Z,18.37
2019-04-30T12:55:22.733Z,18.39
2019-04-30T12:56:26.636Z,18.41
2019-04-30T12:57:21.572Z,18.47
2019-04-30T12:58:20.688Z,18.41
2019-04-30T12:59:19.659Z,18.52
2019-04-30T13:00:21.827Z,18.58
2019-04-30T13:01:19.652Z,18.62
2019-04-30T13:02:21.469Z,18.57
2019-04-30T13:03:19.639Z,18.65
2019-04-30T13:04:21.724Z,18.67
2019-04-30T13:05:21.256Z,18.7
2019-04-30T13:06:21.257Z,18.75
2019-04-30T13:07:23.833Z,18.63
2019-04-30T13:08:24.110Z,18.58
2019-04-30T13:10:21.240Z,18.67
2019-04-30T13:11:23.986Z,18.67
2019-04-30T13:12:21.321Z,18.76
2019-04-30T13:13:21.399Z,18.72
2019-04-30T13:14:23.174Z,18.8
2019-04-30T13:15:19.589Z,18.88